Obion, Tennessee
Current Conditions -  °F | °C
As of 10:55 AM on Saturday 25 Oct 2014 (Local Time) from KUCY Reporting Station
Clear Clear  
Wind Chill: 68°   Ceiling: Unl
Heat Index: 68°   Visibility: 10mi
Dew Point: 59°   Wind: 3mph
Humidity: 73%   Direction: 260°W
Pressure: 30.06"   Gusts: NA
Location:  36.26°N, 89.19°W
Report Text: KUCY 251555Z AUTO 26003KT 10SM CLR 20/15 A3006 RMK
Loading
Personal Weather Stations






























Interactive Weather Map New forecast layout! Learn more

10-Day Weather Forecast

Advertisements
Track Severe Weather on mobile